Time;durP1;ratioP1;P1;durP2;ratioP2;P2;SDS_P1;SDS_P2;PMS_P1;PMS_P2;Temp;Humidity;BMP_temperature;BMP_pressure;BME280_temperature;BME280_humidity;BME280_pressure;Samples;Min_cycle;Max_cycle;Signal;HPM_P1;HPM_P2
2021/05/25 00:00:40;;;;;;;1.43;0.70;;;19.60;38.80;;;;;;8275162;28;20070;-47
2021/05/25 00:04:40;;;;;;;2.30;0.97;;;19.60;38.70;;;;;;8259818;28;20037;-49
2021/05/25 00:08:41;;;;;;;1.50;0.90;;;19.60;38.70;;;;;;8292217;28;20065;-48
2021/05/25 00:12:42;;;;;;;1.13;0.70;;;19.60;39.20;;;;;;8292118;28;20041;-49
2021/05/25 00:16:42;;;;;;;0.85;0.80;;;19.60;38.70;;;;;;8294787;28;20054;-49
2021/05/25 00:20:43;;;;;;;2.93;1.23;;;19.60;38.70;;;;;;8291687;28;20156;-49
2021/05/25 00:24:43;;;;;;;1.17;0.77;;;19.60;38.60;;;;;;8291725;28;20080;-49
2021/05/25 00:28:44;;;;;;;1.43;0.80;;;19.50;38.60;;;;;;8290093;28;20160;-49
2021/05/25 00:32:46;;;;;;;1.63;0.70;;;19.60;38.60;;;;;;8299937;28;20541;-49
2021/05/25 00:36:46;;;;;;;0.77;0.77;;;19.60;38.60;;;;;;8297887;28;20044;-51
2021/05/25 00:40:47;;;;;;;0.73;0.70;;;19.50;38.60;;;;;;8296220;28;20437;-48
2021/05/25 00:44:47;;;;;;;0.67;0.60;;;19.50;38.60;;;;;;8297961;28;20395;-48
2021/05/25 00:48:48;;;;;;;0.50;0.50;;;19.50;38.60;;;;;;8302278;28;20588;-47
2021/05/25 00:52:54;;;;;;;2.10;0.90;;;19.50;38.60;;;;;;8293884;28;20495;-47
2021/05/25 00:56:57;;;;;;;1.02;0.60;;;19.50;38.60;;;;;;8264916;28;20050;-48
2021/05/25 01:00:57;;;;;;;0.77;0.70;;;19.50;38.60;;;;;;8264629;28;20042;-47
2021/05/25 01:04:59;;;;;;;0.70;0.60;;;19.50;38.60;;;;;;8262937;28;20105;-48
2021/05/25 01:09:01;;;;;;;2.15;0.70;;;19.50;38.60;;;;;;8269124;28;20037;-48
2021/05/25 01:13:05;;;;;;;1.17;0.90;;;19.50;38.60;;;;;;8284662;28;20041;-49
2021/05/25 01:17:06;;;;;;;1.00;0.60;;;19.40;38.50;;;;;;8295120;28;20398;-48
2021/05/25 01:21:09;;;;;;;0.70;0.70;;;19.50;38.60;;;;;;8296424;28;20041;-47
2021/05/25 01:25:14;;;;;;;2.13;0.60;;;19.40;38.60;;;;;;8300926;28;20030;-49
2021/05/25 01:29:15;;;;;;;0.95;0.82;;;19.40;38.50;;;;;;8265770;28;20027;-48
2021/05/25 01:33:17;;;;;;;0.90;0.60;;;19.40;38.50;;;;;;8263826;28;20188;-47
2021/05/25 01:37:22;;;;;;;1.92;0.73;;;19.40;38.50;;;;;;8285826;28;20070;-48
2021/05/25 01:41:22;;;;;;;1.13;0.60;;;19.40;38.60;;;;;;8287585;28;20039;-48
2021/05/25 01:45:25;;;;;;;0.60;0.50;;;19.40;38.50;;;;;;8281865;28;20406;-48
2021/05/25 01:49:26;;;;;;;0.93;0.70;;;19.40;38.50;;;;;;8295759;28;20030;-49
2021/05/25 01:53:28;;;;;;;2.13;0.60;;;19.40;38.50;;;;;;8294142;28;20124;-50
2021/05/25 01:57:29;;;;;;;1.15;0.60;;;19.40;38.50;;;;;;8295556;28;20034;-51
2021/05/25 02:01:29;;;;;;;2.03;0.70;;;19.40;38.60;;;;;;8299938;28;20069;-48
2021/05/25 02:05:31;;;;;;;1.43;0.77;;;19.30;38.50;;;;;;8293636;28;20037;-49
2021/05/25 02:09:36;;;;;;;0.63;0.57;;;19.40;38.50;;;;;;8310336;28;20037;-48
2021/05/25 02:13:38;;;;;;;1.00;0.45;;;19.30;38.50;;;;;;8293071;28;20046;-47
2021/05/25 02:17:39;;;;;;;1.25;0.70;;;19.30;38.50;;;;;;8295232;28;20030;-48
2021/05/25 02:21:40;;;;;;;0.60;0.47;;;19.30;38.50;;;;;;8299128;28;20042;-49
2021/05/25 02:25:40;;;;;;;0.50;0.50;;;19.30;38.50;;;;;;8292788;28;20045;-48
2021/05/25 02:29:41;;;;;;;0.73;0.50;;;19.30;38.50;;;;;;8294857;28;20068;-49
2021/05/25 02:33:42;;;;;;;1.43;0.73;;;19.30;38.50;;;;;;8277060;28;20129;-50
2021/05/25 02:37:42;;;;;;;0.50;0.40;;;19.30;38.50;;;;;;8265841;28;20507;-47
2021/05/25 02:41:43;;;;;;;0.57;0.50;;;19.30;38.50;;;;;;8294198;28;20042;-48
2021/05/25 02:45:44;;;;;;;0.73;0.57;;;19.30;38.50;;;;;;8276280;28;20034;-47
2021/05/25 02:49:46;;;;;;;0.90;0.60;;;19.30;38.50;;;;;;8284202;28;20541;-47
2021/05/25 02:53:46;;;;;;;1.70;0.60;;;19.30;38.50;;;;;;8262453;28;20049;-50
2021/05/25 02:57:47;;;;;;;1.20;0.63;;;19.30;38.50;;;;;;8251419;28;20066;-46
2021/05/25 03:01:48;;;;;;;0.60;0.60;;;19.30;38.50;;;;;;8257146;28;20026;-49
2021/05/25 03:05:49;;;;;;;0.55;0.50;;;19.20;38.40;;;;;;8261031;28;20486;-49
2021/05/25 03:09:49;;;;;;;0.40;0.40;;;19.20;38.50;;;;;;8259508;28;20027;-50
2021/05/25 03:13:51;;;;;;;1.70;0.87;;;19.20;38.40;;;;;;8263758;28;20042;-49
2021/05/25 03:17:52;;;;;;;0.40;0.40;;;19.20;38.40;;;;;;8271339;28;20025;-46
2021/05/25 03:21:53;;;;;;;0.60;0.60;;;19.20;38.40;;;;;;8292977;28;20446;-49
2021/05/25 03:25:56;;;;;;;0.67;0.40;;;19.20;38.40;;;;;;8288422;28;20034;-49
2021/05/25 03:29:56;;;;;;;1.50;0.70;;;19.20;38.40;;;;;;8276279;28;20156;-49
2021/05/25 03:33:57;;;;;;;0.93;0.60;;;19.20;38.40;;;;;;8292762;28;20045;-49
2021/05/25 03:37:57;;;;;;;1.23;0.60;;;19.20;38.40;;;;;;8263234;28;20627;-46
2021/05/25 03:42:00;;;;;;;0.47;0.47;;;19.20;38.40;;;;;;8271836;28;20061;-47
2021/05/25 03:46:01;;;;;;;0.55;0.45;;;19.20;38.40;;;;;;8292316;28;20116;-47
2021/05/25 03:50:08;;;;;;;1.10;0.60;;;19.20;38.40;;;;;;8295112;28;20489;-49
2021/05/25 03:54:20;;;;;;;1.80;0.70;;;19.20;38.40;;;;;;8307171;28;20068;-49
2021/05/25 04:02:40;;;;;;;1.13;0.60;;;19.20;38.40;;;;;;8258442;28;20521;-48
2021/05/25 04:06:41;;;;;;;1.10;0.60;;;19.20;38.40;;;;;;8279394;28;20034;-49
2021/05/25 04:10:41;;;;;;;0.60;0.60;;;19.20;38.30;;;;;;8276185;28;20034;-49
2021/05/25 04:14:42;;;;;;;1.17;0.77;;;19.20;38.30;;;;;;8266853;28;20555;-48
2021/05/25 04:18:43;;;;;;;0.97;0.60;;;19.20;38.30;;;;;;8266131;28;20046;-48
2021/05/25 04:22:43;;;;;;;0.83;0.50;;;19.20;38.30;;;;;;8265788;28;20045;-49
2021/05/25 04:26:44;;;;;;;1.13;0.57;;;19.20;38.30;;;;;;8302808;28;20276;-48
2021/05/25 04:30:45;;;;;;;0.60;0.60;;;19.20;38.30;;;;;;8298218;28;20403;-48
2021/05/25 04:34:45;;;;;;;0.80;0.60;;;19.20;38.30;;;;;;8270323;28;20046;-49
2021/05/25 04:38:46;;;;;;;0.70;0.40;;;19.20;38.30;;;;;;8265594;28;20439;-48
2021/05/25 04:42:47;;;;;;;1.13;0.80;;;19.20;38.30;;;;;;8269691;28;20039;-48
2021/05/25 04:46:47;;;;;;;0.90;0.60;;;19.10;38.20;;;;;;8263826;28;20477;-49
2021/05/25 04:50:48;;;;;;;0.73;0.57;;;19.20;38.30;;;;;;8265254;28;20035;-49
2021/05/25 04:54:48;;;;;;;2.80;0.47;;;19.10;38.20;;;;;;8264895;28;20108;-50
2021/05/25 04:58:49;;;;;;;1.23;0.60;;;19.10;38.20;;;;;;8263271;28;20046;-48
2021/05/25 05:02:50;;;;;;;2.67;0.80;;;19.10;38.20;;;;;;8269469;28;20030;-49
2021/05/25 05:06:50;;;;;;;2.33;0.70;;;19.10;38.20;;;;;;8283664;28;20117;-48
2021/05/25 05:10:51;;;;;;;1.00;0.50;;;19.20;38.30;;;;;;8292905;28;20041;-49
2021/05/25 05:14:53;;;;;;;1.00;0.77;;;19.10;38.20;;;;;;8264468;28;20046;-49
2021/05/25 05:18:53;;;;;;;2.22;0.60;;;19.10;38.30;;;;;;8268544;28;20077;-50
2021/05/25 05:22:54;;;;;;;0.87;0.77;;;19.10;38.20;;;;;;8286961;28;20169;-49
2021/05/25 05:26:55;;;;;;;1.57;0.70;;;19.10;38.30;;;;;;8263934;28;20045;-48
2021/05/25 05:30:55;;;;;;;0.90;0.50;;;19.10;38.30;;;;;;8264188;28;20407;-50
2021/05/25 05:34:57;;;;;;;;;;;19.10;38.20;;;;;;8288052;28;20049;-51
2021/05/25 05:38:57;;;;;;;0.60;0.40;;;19.10;38.30;;;;;;8267272;28;19913;-49
2021/05/25 05:42:58;;;;;;;1.60;0.70;;;19.10;38.30;;;;;;8263614;28;20046;-49
2021/05/25 05:46:58;;;;;;;0.50;0.50;;;19.10;38.30;;;;;;8261843;28;20153;-49
2021/05/25 05:50:59;;;;;;;1.40;0.70;;;19.10;38.30;;;;;;8263430;28;20034;-48
2021/05/25 05:54:59;;;;;;;0.80;0.53;;;19.10;38.30;;;;;;8267497;28;20049;-50
2021/05/25 05:59:00;;;;;;;1.30;0.43;;;19.10;38.30;;;;;;8261339;28;20061;-49
2021/05/25 06:03:01;;;;;;;1.60;0.70;;;19.10;38.30;;;;;;8262894;28;20479;-47
2021/05/25 06:07:01;;;;;;;2.07;1.00;;;19.10;38.30;;;;;;8262808;28;20074;-48
2021/05/25 06:11:02;;;;;;;3.77;0.90;;;19.10;38.20;;;;;;8290095;28;20042;-48
2021/05/25 06:15:03;;;;;;;2.13;0.80;;;19.10;38.20;;;;;;8262464;28;20153;-47
2021/05/25 06:19:04;;;;;;;3.45;0.73;;;19.10;38.20;;;;;;8262262;28;20073;-51
2021/05/25 06:23:05;;;;;;;2.65;1.25;;;19.10;38.20;;;;;;8260709;28;20403;-49
2021/05/25 06:27:05;;;;;;;2.30;0.90;;;19.10;38.20;;;;;;8261989;28;20054;-50
2021/05/25 06:31:06;;;;;;;2.43;0.70;;;19.10;38.20;;;;;;8286990;28;20487;-48
2021/05/25 06:35:07;;;;;;;1.57;0.80;;;19.10;38.20;;;;;;8292488;28;20100;-49
2021/05/25 06:39:08;;;;;;;;;;;19.10;38.30;;;;;;8294836;28;20038;-48
2021/05/25 06:43:09;;;;;;;1.88;0.82;;;19.10;38.20;;;;;;8293769;28;19924;-49
2021/05/25 06:47:09;;;;;;;2.10;0.90;;;19.10;38.30;;;;;;8267583;28;20038;-48
2021/05/25 06:51:10;;;;;;;2.00;0.80;;;19.10;38.20;;;;;;8274396;28;20060;-49
2021/05/25 06:55:12;;;;;;;3.20;1.00;;;19.10;38.20;;;;;;8272283;28;20487;-48
2021/05/25 06:59:13;;;;;;;1.52;0.60;;;19.10;38.20;;;;;;8259686;28;20045;-50
2021/05/25 07:03:13;;;;;;;3.80;0.80;;;19.20;38.10;;;;;;8265757;28;20026;-49
2021/05/25 07:07:14;;;;;;;1.40;1.30;;;19.20;38.10;;;;;;8260841;28;20073;-48
2021/05/25 07:11:15;;;;;;;2.20;0.90;;;19.20;38.00;;;;;;8259323;28;20030;-48
2021/05/25 07:15:15;;;;;;;2.00;0.70;;;19.20;38.10;;;;;;8260892;28;20571;-49
2021/05/25 07:19:16;;;;;;;1.20;0.90;;;19.20;38.10;;;;;;8260604;28;20046;-48
2021/05/25 07:23:16;;;;;;;2.07;1.00;;;19.20;38.10;;;;;;8287781;28;20050;-48
2021/05/25 07:27:17;;;;;;;1.83;0.70;;;19.20;38.20;;;;;;8260577;28;20125;-47
2021/05/25 07:31:18;;;;;;;1.27;0.90;;;19.20;38.20;;;;;;8282735;28;20032;-49
2021/05/25 07:35:19;;;;;;;1.10;0.73;;;19.20;38.20;;;;;;8291002;28;20289;-50
2021/05/25 07:39:19;;;;;;;1.30;0.73;;;19.20;38.20;;;;;;8297065;28;20042;-48
2021/05/25 07:43:20;;;;;;;1.40;0.70;;;19.20;38.20;;;;;;8291835;28;20026;-49
2021/05/25 07:47:20;;;;;;;1.60;1.00;;;19.20;38.20;;;;;;8290749;28;20117;-48
2021/05/25 07:51:21;;;;;;;1.00;0.60;;;19.20;38.20;;;;;;8292324;28;20482;-48
2021/05/25 07:55:24;;;;;;;1.43;1.00;;;19.20;38.20;;;;;;8294135;28;20144;-48
2021/05/25 07:59:24;;;;;;;1.77;0.75;;;19.20;38.20;;;;;;8294065;28;20034;-47
2021/05/25 08:03:25;;;;;;;2.10;0.90;;;19.20;38.20;;;;;;8292756;28;20387;-48
2021/05/25 08:07:25;;;;;;;1.83;0.67;;;19.30;38.20;;;;;;8292078;28;20113;-47
2021/05/25 08:11:26;;;;;;;2.17;1.20;;;19.30;38.10;;;;;;8290582;28;20045;-51
2021/05/25 08:15:28;;;;;;;1.43;0.93;;;19.30;38.10;;;;;;8296408;28;20045;-49
2021/05/25 08:19:31;;;;;;;2.15;0.70;;;19.30;38.10;;;;;;8268329;28;20118;-47
2021/05/25 08:23:32;;;;;;;2.05;0.65;;;19.30;38.00;;;;;;8258181;28;20487;-49
2021/05/25 08:27:32;;;;;;;1.60;0.70;;;19.40;38.00;;;;;;8259536;28;20100;-47
2021/05/25 08:31:33;;;;;;;1.50;0.97;;;19.40;37.90;;;;;;8263569;28;20043;-46
2021/05/25 08:35:37;;;;;;;1.53;0.80;;;19.40;38.00;;;;;;8290223;28;20054;-48
2021/05/25 08:39:37;;;;;;;3.08;0.82;;;19.40;37.90;;;;;;8291178;28;20053;-47
2021/05/25 08:43:38;;;;;;;0.80;0.73;;;19.50;37.80;;;;;;8290225;28;20034;-47
2021/05/25 08:47:41;;;;;;;1.55;1.08;;;19.50;37.80;;;;;;8291600;28;20041;-45
2021/05/25 08:51:41;;;;;;;1.80;0.80;;;19.50;37.90;;;;;;8296271;28;20129;-47
2021/05/25 08:55:46;;;;;;;1.93;0.60;;;19.50;37.80;;;;;;8295597;28;20414;-47
2021/05/25 08:59:47;;;;;;;1.90;0.73;;;19.50;37.80;;;;;;8297595;28;20085;-48
2021/05/25 09:04:02;;;;;;;2.57;1.00;;;19.50;37.80;;;;;;8297765;28;20030;-46
2021/05/25 09:08:04;;;;;;;1.58;0.60;;;19.50;37.80;;;;;;8299938;28;20438;-47
2021/05/25 09:12:09;;;;;;;1.65;0.88;;;19.50;37.80;;;;;;8296686;28;20372;-47
2021/05/25 09:16:10;;;;;;;1.63;0.82;;;19.50;37.80;;;;;;8295433;28;20095;-45
2021/05/25 09:20:11;;;;;;;2.03;0.80;;;19.50;37.70;;;;;;8295053;28;20034;-46
2021/05/25 09:24:12;;;;;;;1.17;0.73;;;19.50;37.70;;;;;;8296785;28;20076;-46
2021/05/25 09:28:14;;;;;;;2.87;0.77;;;19.60;37.70;;;;;;8300806;28;20045;-48
2021/05/25 09:32:17;;;;;;;2.58;0.80;;;19.60;37.60;;;;;;8294704;28;20113;-47
2021/05/25 09:36:17;;;;;;;3.33;0.98;;;19.60;37.50;;;;;;8296171;28;20050;-47
2021/05/25 09:40:21;;;;;;;1.90;0.83;;;19.70;37.50;;;;;;8296144;28;20052;-46
2021/05/25 09:44:22;;;;;;;0.88;0.70;;;19.70;37.50;;;;;;8298702;28;20502;-47
2021/05/25 09:48:24;;;;;;;1.43;0.60;;;19.60;37.50;;;;;;8295781;28;20045;-46
2021/05/25 09:52:24;;;;;;;1.88;0.77;;;19.70;37.50;;;;;;8295878;28;20040;-46
2021/05/25 09:56:27;;;;;;;1.83;0.63;;;19.70;37.40;;;;;;8293715;28;20080;-46
2021/05/25 10:00:33;;;;;;;2.38;0.80;;;19.70;37.30;;;;;;8295279;28;20037;-47
2021/05/25 10:04:34;;;;;;;1.70;0.77;;;19.70;37.20;;;;;;8297166;28;20034;-49
2021/05/25 10:08:36;;;;;;;1.65;0.70;;;19.70;37.10;;;;;;8295292;28;20026;-48
2021/05/25 10:12:37;;;;;;;1.50;0.60;;;19.80;37.10;;;;;;8294994;28;20049;-50
2021/05/25 10:16:41;;;;;;;2.60;0.70;;;19.80;37.10;;;;;;8293163;28;20478;-47
2021/05/25 10:20:42;;;;;;;1.77;0.80;;;19.80;37.00;;;;;;8299029;28;20038;-46
2021/05/25 10:24:43;;;;;;;1.35;0.55;;;19.80;37.00;;;;;;8294651;28;20048;-47
2021/05/25 10:28:48;;;;;;;2.10;0.77;;;19.80;37.00;;;;;;8293376;28;20038;-45
2021/05/25 10:33:05;;;;;;;3.90;0.80;;;19.90;36.90;;;;;;8294681;28;20037;-46
2021/05/25 10:37:13;;;;;;;2.03;0.80;;;19.90;36.90;;;;;;8294367;28;20483;-46
2021/05/25 10:41:25;;;;;;;1.92;0.68;;;19.90;36.90;;;;;;8297016;28;20422;-47
2021/05/25 10:45:30;;;;;;;2.05;0.68;;;19.90;36.80;;;;;;8294185;28;20056;-46
2021/05/25 10:50:47;;;;;;;1.60;0.70;;;19.90;36.80;;;;;;8293650;28;20474;-47
2021/05/25 10:54:46;;;;;;;0.88;0.60;;;19.90;36.60;;;;;;8292432;28;20046;-47
2021/05/25 10:59:00;;;;;;;1.50;0.60;;;19.90;36.70;;;;;;8292187;28;20151;-47
2021/05/25 11:03:23;;;;;;;0.60;0.43;;;19.90;36.70;;;;;;8293892;28;20471;-47
2021/05/25 11:07:37;;;;;;;2.85;0.90;;;20.00;36.70;;;;;;8297482;28;20045;-48
2021/05/25 11:11:38;;;;;;;1.55;0.60;;;20.00;36.60;;;;;;8292526;28;20026;-48
2021/05/25 11:16:16;;;;;;;1.83;0.80;;;20.00;36.60;;;;;;8292913;28;20053;-49
2021/05/25 11:20:54;;;;;;;2.53;0.75;;;20.00;36.50;;;;;;8291445;28;20045;-47
2021/05/25 11:25:03;;;;;;;2.85;0.70;;;20.10;36.50;;;;;;8292868;28;20030;-46
2021/05/25 11:29:21;;;;;;;1.42;0.70;;;20.10;36.60;;;;;;8286883;28;20045;-46
2021/05/25 11:33:31;;;;;;;2.00;0.68;;;20.10;36.60;;;;;;8264764;28;20030;-46
2021/05/25 11:37:37;;;;;;;0.97;0.60;;;20.10;36.60;;;;;;8284131;28;20570;-46
2021/05/25 11:41:38;;;;;;;1.15;0.70;;;20.00;36.60;;;;;;8282428;28;20713;-47
2021/05/25 11:45:39;;;;;;;0.85;0.60;;;20.10;36.60;;;;;;8259731;28;20039;-46
2021/05/25 11:49:42;;;;;;;2.33;0.80;;;20.10;36.60;;;;;;8258235;28;20038;-47
2021/05/25 11:53:43;;;;;;;0.90;0.55;;;20.10;36.60;;;;;;8263971;28;20043;-47
2021/05/25 11:57:45;;;;;;;1.52;0.90;;;20.10;36.60;;;;;;8260044;28;20073;-49
2021/05/25 12:01:53;;;;;;;2.50;0.60;;;20.10;36.50;;;;;;8257863;28;20041;-47
2021/05/25 12:05:54;;;;;;;1.95;0.70;;;20.10;36.40;;;;;;8259563;28;20045;-48
2021/05/25 12:09:58;;;;;;;2.83;1.33;;;20.10;36.40;;;;;;8283350;28;20034;-47
2021/05/25 12:13:59;;;;;;;2.15;0.70;;;20.10;36.30;;;;;;8290042;28;20049;-47
2021/05/25 12:18:01;;;;;;;2.03;0.75;;;20.10;36.40;;;;;;8280558;28;20109;-47
2021/05/25 12:22:03;;;;;;;0.77;0.68;;;20.10;36.30;;;;;;8259377;28;20124;-48
2021/05/25 12:26:05;;;;;;;0.98;0.52;;;20.10;36.30;;;;;;8257622;28;20042;-45
2021/05/25 12:30:07;;;;;;;4.22;0.80;;;20.20;36.40;;;;;;8269884;28;20089;-46
2021/05/25 12:34:08;;;;;;;0.60;0.60;;;20.20;36.40;;;;;;8265621;28;20046;-45
2021/05/25 12:38:15;;;;;;;0.97;0.67;;;20.20;36.30;;;;;;8288366;28;20082;-46
2021/05/25 12:42:17;;;;;;;1.20;0.70;;;20.20;36.30;;;;;;8265325;28;20117;-46
2021/05/25 12:46:17;;;;;;;2.55;0.70;;;20.20;36.20;;;;;;8269649;28;20501;-47
2021/05/25 12:50:40;;;;;;;2.33;1.00;;;20.20;36.20;;;;;;8263279;28;20034;-46
2021/05/25 12:54:56;;;;;;;2.47;0.80;;;20.30;36.20;;;;;;8265000;28;20081;-46
2021/05/25 12:58:57;;;;;;;1.83;0.93;;;20.30;36.20;;;;;;8290811;28;20045;-47
2021/05/25 13:02:59;;;;;;;1.92;0.68;;;20.30;36.10;;;;;;8286095;28;20033;-47
2021/05/25 13:07:07;;;;;;;1.58;0.68;;;20.30;36.10;;;;;;8269205;28;20030;-48
2021/05/25 13:11:09;;;;;;;0.98;0.57;;;20.30;36.10;;;;;;8267620;28;20092;-47
2021/05/25 13:15:10;;;;;;;1.63;0.80;;;20.30;36.20;;;;;;8297137;28;20041;-46
2021/05/25 13:19:10;;;;;;;2.28;0.70;;;20.30;36.10;;;;;;8296607;28;20124;-47
2021/05/25 13:23:21;;;;;;;2.00;0.80;;;20.30;36.60;;;;;;8270588;28;20556;-47
2021/05/25 13:27:26;;;;;;;2.60;0.80;;;20.30;36.10;;;;;;8301053;28;20045;-47
2021/05/25 13:31:30;;;;;;;1.48;0.80;;;20.30;36.10;;;;;;8288167;28;20042;-48
2021/05/25 13:35:30;;;;;;;1.08;0.50;;;20.30;36.10;;;;;;8294308;28;20433;-47
2021/05/25 13:39:31;;;;;;;0.70;0.70;;;20.30;36.10;;;;;;8279549;28;20034;-47
2021/05/25 13:43:31;;;;;;;2.30;0.50;;;20.40;36.10;;;;;;8292302;28;20030;-47
2021/05/25 13:47:32;;;;;;;1.80;0.60;;;20.40;36.20;;;;;;8294288;28;20427;-47
2021/05/25 13:51:34;;;;;;;1.13;0.60;;;20.40;36.10;;;;;;8295847;28;20038;-48
2021/05/25 13:55:36;;;;;;;1.23;0.75;;;20.40;36.10;;;;;;8294459;28;20195;-48
2021/05/25 14:03:43;;;;;;;1.33;0.50;;;20.40;36.10;;;;;;8299706;28;20034;-45
2021/05/25 14:07:46;;;;;;;2.07;0.53;;;20.40;36.10;;;;;;8293645;28;20506;-45
2021/05/25 14:11:47;;;;;;;4.00;1.00;;;20.30;35.80;;;;;;8294282;28;20029;-47
2021/05/25 14:15:47;;;;;;;5.23;1.00;;;20.20;33.70;;;;;;8294429;28;20176;-48
2021/05/25 14:19:48;;;;;;;8.00;1.30;;;20.20;34.90;;;;;;8297759;28;20048;-47
2021/05/25 14:23:48;;;;;;;10.57;1.03;;;20.20;34.90;;;;;;8294727;28;20525;-46
2021/05/25 14:27:49;;;;;;;5.47;1.43;;;20.30;35.10;;;;;;8276444;28;20093;-46
2021/05/25 14:31:49;;;;;;;1.97;0.70;;;20.40;35.30;;;;;;8287529;28;20053;-46
2021/05/25 14:35:50;;;;;;;5.30;1.00;;;20.40;35.30;;;;;;8296330;28;20088;-47
2021/05/25 14:39:51;;;;;;;3.20;1.08;;;20.50;35.30;;;;;;8297423;28;20479;-48
2021/05/25 14:43:51;;;;;;;4.33;0.70;;;20.50;35.20;;;;;;8292997;28;20403;-46
2021/05/25 14:47:53;;;;;;;5.07;0.83;;;20.50;35.30;;;;;;8294500;28;20545;-46
2021/05/25 14:51:54;;;;;;;;;;;20.50;35.30;;;;;;8274974;28;20037;-46
2021/05/25 15:00:01;;;;;;;4.13;0.88;;;20.50;35.30;;;;;;8261635;28;20034;-47
2021/05/25 15:04:05;;;;;;;3.40;1.00;;;20.50;35.40;;;;;;8261151;28;20479;-45
2021/05/25 15:08:09;;;;;;;2.47;0.80;;;20.50;35.40;;;;;;8263827;28;20514;-47
2021/05/25 15:12:10;;;;;;;4.32;0.75;;;20.50;35.40;;;;;;8297343;28;20042;-48
2021/05/25 15:16:12;;;;;;;6.90;0.90;;;20.50;35.40;;;;;;8271894;28;20042;-47
2021/05/25 15:20:15;;;;;;;3.00;0.95;;;20.50;35.40;;;;;;8259466;28;20038;-49
2021/05/25 15:24:15;;;;;;;4.53;1.13;;;20.60;35.50;;;;;;8260664;28;20041;-47
2021/05/25 15:28:16;;;;;;;3.87;1.10;;;20.50;35.50;;;;;;8260944;28;20042;-47
2021/05/25 15:32:16;;;;;;;2.57;1.00;;;20.50;35.40;;;;;;8268740;28;20034;-48
2021/05/25 15:36:17;;;;;;;4.40;1.20;;;20.60;35.40;;;;;;8292618;28;20053;-48
2021/05/25 15:40:18;;;;;;;4.63;1.40;;;20.60;35.50;;;;;;8292541;28;20116;-48
2021/05/25 15:44:18;;;;;;;3.13;1.40;;;20.50;35.40;;;;;;8285360;28;20038;-48
2021/05/25 15:48:20;;;;;;;3.73;1.37;;;20.60;35.50;;;;;;8264563;28;20034;-48
2021/05/25 15:52:20;;;;;;;3.88;1.92;;;20.60;35.40;;;;;;8260208;28;20450;-47
2021/05/25 15:56:21;;;;;;;4.63;2.13;;;20.60;35.40;;;;;;8258493;28;20092;-47
2021/05/25 16:00:23;;;;;;;6.60;2.37;;;20.60;35.40;;;;;;8260444;28;20392;-47
2021/05/25 16:04:23;;;;;;;4.32;1.75;;;20.60;35.40;;;;;;8259006;28;20041;-47
2021/05/25 16:08:24;;;;;;;3.27;1.80;;;20.60;35.40;;;;;;8293990;28;20034;-47
2021/05/25 16:12:25;;;;;;;4.10;2.00;;;20.60;35.50;;;;;;8292178;28;20095;-47
2021/05/25 16:16:30;;;;;;;4.07;1.97;;;20.60;35.40;;;;;;8292064;28;20041;-47
2021/05/25 16:20:30;;;;;;;3.70;1.90;;;20.60;35.40;;;;;;8290346;28;20098;-46
2021/05/25 16:24:31;;;;;;;4.70;1.77;;;20.60;35.40;;;;;;8296853;28;20033;-47
2021/05/25 16:28:36;;;;;;;4.88;2.20;;;20.60;35.40;;;;;;8291857;28;20038;-46
2021/05/25 16:32:37;;;;;;;5.00;1.95;;;20.60;35.40;;;;;;8290197;28;20041;-46
2021/05/25 16:36:37;;;;;;;4.43;2.20;;;20.60;35.40;;;;;;8291747;28;20461;-46
2021/05/25 16:40:38;;;;;;;2.50;1.77;;;20.60;35.40;;;;;;8267392;28;20165;-48
2021/05/25 16:44:38;;;;;;;4.07;2.20;;;20.60;35.40;;;;;;8261726;28;20038;-47
2021/05/25 16:48:39;;;;;;;4.23;2.13;;;20.60;35.40;;;;;;8259206;28;20034;-47
2021/05/25 16:52:42;;;;;;;3.77;2.30;;;20.60;35.40;;;;;;8257823;28;20046;-47
2021/05/25 16:56:43;;;;;;;4.53;2.50;;;20.60;35.30;;;;;;8259449;28;20140;-46
2021/05/25 17:01:15;;;;;;;5.25;2.40;;;20.60;35.40;;;;;;8263657;28;20046;-46
2021/05/25 17:05:31;;;;;;;;;;;20.60;35.40;;;;;;8263487;28;20038;-46
2021/05/25 17:17:56;;;;;;;3.88;2.25;;;20.50;35.40;;;;;;8297287;28;20044;-46
2021/05/25 17:21:56;;;;;;;3.92;1.85;;;20.60;35.40;;;;;;8281865;28;20388;-46
2021/05/25 17:26:57;;;;;;;5.33;2.07;;;20.60;35.40;;;;;;8263090;28;20109;-46
2021/05/25 17:30:27;;;;;;;4.28;2.00;;;20.50;35.40;;;;;;8259406;28;20134;-46
2021/05/25 17:34:27;;;;;;;3.53;1.80;;;20.60;35.50;;;;;;8264140;28;20423;-46
2021/05/25 17:38:28;;;;;;;3.60;1.90;;;20.50;35.40;;;;;;8270091;28;20029;-47
2021/05/25 17:42:29;;;;;;;3.33;1.83;;;20.60;35.50;;;;;;8285170;28;20057;-47
2021/05/25 17:46:29;;;;;;;4.00;1.80;;;20.60;35.40;;;;;;8263983;28;20118;-45
2021/05/25 17:50:30;;;;;;;2.97;1.90;;;20.50;35.50;;;;;;8294404;28;20049;-48
2021/05/25 17:54:30;;;;;;;4.97;1.90;;;20.50;35.40;;;;;;8296027;28;20045;-46
2021/05/25 17:58:31;;;;;;;3.63;1.73;;;20.50;35.50;;;;;;8276623;28;20105;-47
2021/05/25 18:02:32;;;;;;;2.38;1.50;;;20.50;35.50;;;;;;8286139;28;20039;-47
2021/05/25 18:06:45;;;;;;;3.90;1.80;;;20.50;35.60;;;;;;8263573;28;20034;-46
2021/05/25 18:10:45;;;;;;;3.05;1.60;;;20.50;35.50;;;;;;8285555;28;20432;-47
2021/05/25 18:14:46;;;;;;;3.97;2.13;;;20.40;35.50;;;;;;8272888;28;20026;-47
2021/05/25 18:18:46;;;;;;;2.73;1.43;;;20.40;35.50;;;;;;8299586;28;20030;-47
2021/05/25 18:22:47;;;;;;;2.97;1.50;;;20.50;35.60;;;;;;8292561;28;20049;-45
2021/05/25 18:26:48;;;;;;;2.50;1.50;;;20.40;35.60;;;;;;8291900;28;20054;-47
2021/05/25 18:35:01;;;;;;;5.88;1.45;;;20.40;35.70;;;;;;8297323;28;20038;-47
2021/05/25 18:43:22;;;;;;;9.75;1.70;;;20.50;35.80;;;;;;8271605;28;20060;-45
2021/05/25 18:47:24;;;;;;;3.10;1.57;;;20.60;35.90;;;;;;8260688;28;20030;-45
2021/05/25 18:51:24;;;;;;;10.07;1.60;;;20.50;36.00;;;;;;8276425;28;20281;-44
2021/05/25 18:55:25;;;;;;;7.63;1.57;;;20.60;36.10;;;;;;8275216;28;20450;-48
2021/05/25 18:59:28;;;;;;;5.60;1.70;;;20.60;36.10;;;;;;8286504;28;20046;-47
2021/05/25 19:03:29;;;;;;;4.47;1.63;;;20.60;36.20;;;;;;8298201;28;20037;-47
2021/05/25 19:07:29;;;;;;;3.58;1.40;;;20.70;36.40;;;;;;8311400;28;20033;-46
2021/05/25 19:11:30;;;;;;;8.43;1.67;;;20.70;36.40;;;;;;8285980;28;20038;-45
2021/05/25 19:15:31;;;;;;;9.00;1.90;;;20.70;36.50;;;;;;8269473;28;20054;-48
2021/05/25 19:19:41;;;;;;;;;;;20.80;36.60;;;;;;8249917;28;20038;-46
2021/05/25 19:27:56;;;;;;;7.15;1.88;;;20.90;36.50;;;;;;8264449;28;20042;-47
2021/05/25 19:31:57;;;;;;;4.30;1.65;;;20.90;36.50;;;;;;8252317;28;20121;-46
2021/05/25 19:35:59;;;;;;;4.45;1.27;;;20.90;36.40;;;;;;8252958;28;20527;-47
2021/05/25 19:40:00;;;;;;;5.35;1.42;;;21.00;36.40;;;;;;8249903;28;20174;-47
2021/05/25 19:44:01;;;;;;;7.80;1.50;;;21.00;36.50;;;;;;8247957;28;20530;-48
2021/05/25 19:48:01;;;;;;;6.88;1.45;;;21.00;36.50;;;;;;8250220;28;20041;-49
2021/05/25 19:52:04;;;;;;;7.63;1.70;;;21.10;36.50;;;;;;8273285;28;20050;-47
2021/05/25 19:56:05;;;;;;;3.78;1.73;;;21.10;36.40;;;;;;8257058;28;20117;-49
2021/05/25 20:00:07;;;;;;;6.13;1.30;;;21.10;36.30;;;;;;8275032;28;20030;-49
2021/05/25 20:04:08;;;;;;;5.75;1.40;;;21.10;36.30;;;;;;8290315;28;20034;-49
2021/05/25 20:08:08;;;;;;;6.18;1.58;;;21.10;36.40;;;;;;8283809;28;20041;-51
2021/05/25 20:12:09;;;;;;;1.73;1.10;;;21.20;36.40;;;;;;8254028;28;20077;-50
2021/05/25 20:16:09;;;;;;;3.07;1.30;;;21.20;36.40;;;;;;8253815;28;20057;-49
2021/05/25 20:20:12;;;;;;;3.33;1.47;;;21.20;36.40;;;;;;8257274;28;20077;-47
2021/05/25 20:24:12;;;;;;;2.50;1.25;;;21.20;36.50;;;;;;8290510;28;20046;-48
2021/05/25 20:28:13;;;;;;;2.30;1.20;;;21.30;36.50;;;;;;8285798;28;20208;-47
2021/05/25 20:32:14;;;;;;;2.30;1.05;;;21.20;36.40;;;;;;8279308;28;20038;-47
2021/05/25 20:40:35;;;;;;;3.72;1.15;;;21.30;36.40;;;;;;8295851;28;20541;-49
2021/05/25 20:44:35;;;;;;;5.45;1.50;;;21.30;36.40;;;;;;8256215;28;20038;-51
2021/05/25 20:48:40;;;;;;;3.40;1.50;;;21.40;36.50;;;;;;8259779;28;20039;-50
2021/05/25 20:52:42;;;;;;;3.30;1.30;;;21.30;36.40;;;;;;8261017;28;20074;-51
2021/05/25 20:56:42;;;;;;;2.65;1.23;;;21.40;36.40;;;;;;8281188;28;20054;-51
2021/05/25 21:00:43;;;;;;;2.63;1.30;;;21.40;36.40;;;;;;8277362;28;20034;-52
2021/05/25 21:04:43;;;;;;;1.57;1.10;;;21.40;36.50;;;;;;8292920;28;20400;-48
2021/05/25 21:08:44;;;;;;;4.90;1.13;;;21.40;36.50;;;;;;8282187;28;20034;-49
2021/05/25 21:12:44;;;;;;;3.50;1.40;;;21.50;36.60;;;;;;8258959;28;20141;-48
2021/05/25 21:16:46;;;;;;;4.37;1.40;;;21.50;36.60;;;;;;8281737;28;20088;-50
2021/05/25 21:20:47;;;;;;;3.13;1.35;;;21.50;36.60;;;;;;8272908;28;20160;-50
2021/05/25 21:24:47;;;;;;;3.57;1.10;;;21.50;36.60;;;;;;8290121;28;20038;-49
2021/05/25 21:28:48;;;;;;;6.77;1.60;;;21.50;36.80;;;;;;8287201;28;20125;-49
2021/05/25 21:32:50;;;;;;;2.53;1.10;;;21.50;36.80;;;;;;8268699;28;20038;-48
2021/05/25 21:36:50;;;;;;;2.13;1.08;;;21.50;36.80;;;;;;8294295;28;20054;-50
2021/05/25 21:40:51;;;;;;;2.83;1.10;;;21.60;36.80;;;;;;8288821;28;20133;-50